Time;durP1;ratioP1;P1;durP2;ratioP2;P2;SDS_P1;SDS_P2;PMS_P1;PMS_P2;Temp;Humidity;BMP_temperature;BMP_pressure;BME280_temperature;BME280_humidity;BME280_pressure;Samples;Min_cycle;Max_cycle;Signal;HPM_P1;HPM_P2
2021/06/06 00:01:13;;;;;;;;;;;24.20;49.70;;;;;;1624680;71;670;-67
2021/06/06 00:03:17;;;;;;;;;;;24.30;49.70;;;;;;1626902;71;1153;-68
2021/06/06 00:05:19;;;;;;;;;;;24.20;49.70;;;;;;1622562;71;733;-66
2021/06/06 00:07:20;;;;;;;;;;;24.20;49.70;;;;;;1623652;71;1938;-66
2021/06/06 00:09:22;;;;;;;;;;;24.20;49.70;;;;;;1620596;71;763;-66
2021/06/06 00:11:25;;;;;;;;;;;24.20;49.70;;;;;;1624622;71;1143;-66
2021/06/06 00:13:27;;;;;;;;;;;24.20;49.70;;;;;;1623663;71;788;-69
2021/06/06 00:15:29;;;;;;;;;;;24.20;49.80;;;;;;1623965;71;789;-67
2021/06/06 00:17:31;;;;;;;;;;;24.20;49.90;;;;;;1619147;71;687;-66
2021/06/06 00:19:33;;;;;;;;;;;24.20;49.90;;;;;;1624131;71;795;-66
2021/06/06 00:21:35;;;;;;;;;;;24.30;50.00;;;;;;1624051;71;1198;-66
2021/06/06 00:23:37;;;;;;;;;;;24.20;49.80;;;;;;1626201;71;825;-66
2021/06/06 00:25:39;;;;;;;;;;;24.20;49.90;;;;;;1623458;71;790;-66
2021/06/06 00:27:41;;;;;;;;;;;24.30;50.00;;;;;;1624026;71;1924;-66
2021/06/06 00:29:43;;;;;;;;;;;24.20;50.00;;;;;;1623021;71;745;-67
2021/06/06 00:31:44;;;;;;;;;;;24.20;50.00;;;;;;1625288;71;1142;-69
2021/06/06 00:33:47;;;;;;;;;;;24.20;49.90;;;;;;1623401;71;771;-67
2021/06/06 00:35:49;;;;;;;;;;;24.20;49.90;;;;;;1620611;71;915;-69
2021/06/06 00:37:51;;;;;;;;;;;24.20;49.90;;;;;;1623891;71;745;-66
2021/06/06 00:39:52;;;;;;;;;;;24.30;50.00;;;;;;1626879;71;783;-65
2021/06/06 00:41:54;;;;;;;;;;;24.30;50.00;;;;;;1624719;71;1144;-66
2021/06/06 00:43:56;;;;;;;;;;;24.20;50.00;;;;;;1626445;71;810;-67
2021/06/06 00:45:58;;;;;;;;;;;24.20;49.90;;;;;;1626786;71;872;-66
2021/06/06 00:48:00;;;;;;;;;;;24.30;50.00;;;;;;1623501;71;1925;-66
2021/06/06 00:50:07;;;;;;;;;;;24.20;49.70;;;;;;1623346;71;697;-67
2021/06/06 00:52:06;;;;;;;;;;;24.20;49.70;;;;;;1623038;71;1657;-65
2021/06/06 00:54:08;;;;;;;;;;;24.30;49.80;;;;;;1626338;71;727;-65
2021/06/06 00:56:12;;;;;;;;;;;24.20;49.50;;;;;;1622860;71;739;-68
2021/06/06 00:58:14;;;;;;;;;;;24.20;49.50;;;;;;1624886;71;817;-64
2021/06/06 01:00:34;;;;;;;;;;;24.20;49.40;;;;;;1618323;71;718;-64
2021/06/06 01:02:36;;;;;;;;;;;24.30;49.60;;;;;;1620991;73;1134;-65
2021/06/06 01:04:38;;;;;;;;;;;24.30;49.60;;;;;;1626260;73;816;-65
2021/06/06 01:06:50;;;;;;;;;;;24.30;49.60;;;;;;1620771;71;769;-65
2021/06/06 01:08:52;;;;;;;;;;;24.30;49.60;;;;;;1626285;71;1931;-66
2021/06/06 01:10:55;;;;;;;;;;;24.30;49.50;;;;;;1625692;71;810;-64
2021/06/06 01:12:59;;;;;;;;;;;24.30;49.40;;;;;;1621697;71;1150;-66
2021/06/06 01:15:02;;;;;;;;;;;24.30;49.50;;;;;;1618465;71;1078;-65
2021/06/06 01:17:06;;;;;;;;;;;24.30;49.40;;;;;;1627177;71;1940;-65
2021/06/06 01:19:09;;;;;;;;;;;24.30;49.40;;;;;;1627015;73;781;-68
2021/06/06 01:21:29;;;;;;;;;;;24.30;49.30;;;;;;1615128;71;868;-66
2021/06/06 01:23:49;;;;;;;;;;;24.30;49.40;;;;;;1624232;71;806;-63
2021/06/06 01:25:51;;;;;;;;;;;24.30;49.30;;;;;;1626283;71;664;-66
2021/06/06 01:27:56;;;;;;;;;;;24.20;49.40;;;;;;1626544;71;1947;-66
2021/06/06 01:30:01;;;;;;;;;;;24.20;49.40;;;;;;1626610;71;1961;-66
2021/06/06 01:32:08;;;;;;;;;;;24.20;49.40;;;;;;1626818;71;1137;-66
2021/06/06 01:34:10;;;;;;;;;;;24.30;49.50;;;;;;1627057;71;1502;-67
2021/06/06 01:36:14;;;;;;;;;;;24.30;49.60;;;;;;1626293;71;775;-68
2021/06/06 01:38:17;;;;;;;;;;;24.30;49.40;;;;;;1622810;71;872;-66
2021/06/06 01:40:23;;;;;;;;;;;24.30;49.40;;;;;;1611517;72;915;-68
2021/06/06 01:42:30;;;;;;;;;;;24.40;49.40;;;;;;1611660;72;1787;-67
2021/06/06 01:44:32;;;;;;;;;;;24.30;49.40;;;;;;1619715;71;1060;-67
2021/06/06 01:46:36;;;;;;;;;;;24.30;49.40;;;;;;1622079;71;808;-67
2021/06/06 01:48:38;;;;;;;;;;;24.30;49.20;;;;;;1621890;72;1927;-67
2021/06/06 01:50:44;;;;;;;;;;;24.30;49.20;;;;;;1615628;71;834;-67
2021/06/06 01:52:46;;;;;;;;;;;24.30;49.30;;;;;;1624485;71;1172;-67
2021/06/06 01:54:48;;;;;;;;;;;24.30;49.40;;;;;;1622977;71;755;-66
2021/06/06 01:56:50;;;;;;;;;;;24.30;49.30;;;;;;1626298;71;685;-67
2021/06/06 01:58:56;;;;;;;;;;;24.30;49.20;;;;;;1625220;71;798;-66
2021/06/06 02:00:59;;;;;;;;;;;24.30;49.20;;;;;;1622756;71;768;-69
2021/06/06 02:03:01;;;;;;;;;;;24.30;49.20;;;;;;1623270;71;1118;-66
2021/06/06 02:05:14;;;;;;;;;;;24.30;49.10;;;;;;1624376;71;677;-66
2021/06/06 02:07:19;;;;;;;;;;;24.30;49.20;;;;;;1625531;71;1595;-69
2021/06/06 02:09:22;;;;;;;;;;;24.30;49.10;;;;;;1622222;71;1923;-69
2021/06/06 02:11:29;;;;;;;;;;;24.30;49.20;;;;;;1620745;71;1213;-66
2021/06/06 02:13:37;;;;;;;;;;;24.30;49.20;;;;;;1620598;71;2002;-69
2021/06/06 02:15:39;;;;;;;;;;;24.30;49.20;;;;;;1618476;71;1473;-69
2021/06/06 02:17:41;;;;;;;;;;;24.30;49.10;;;;;;1624518;73;793;-66
2021/06/06 02:19:43;;;;;;;;;;;24.30;49.00;;;;;;1625079;71;694;-66
2021/06/06 02:21:44;;;;;;;;;;;24.30;49.10;;;;;;1621866;71;1166;-66
2021/06/06 02:23:47;;;;;;;;;;;24.30;49.10;;;;;;1622614;71;756;-66
2021/06/06 02:25:49;;;;;;;;;;;24.30;49.10;;;;;;1622691;71;710;-66
2021/06/06 02:28:05;;;;;;;;;;;24.30;48.90;;;;;;1624738;71;767;-66
2021/06/06 02:30:11;;;;;;;;;;;24.30;48.90;;;;;;1623451;71;716;-68
2021/06/06 02:32:17;;;;;;;;;;;24.30;49.10;;;;;;1622489;71;1149;-66
2021/06/06 02:34:20;;;;;;;;;;;24.30;49.10;;;;;;1618888;71;778;-65
2021/06/06 02:36:22;;;;;;;;;;;24.30;49.10;;;;;;1625457;73;757;-68
2021/06/06 02:38:28;;;;;;;;;;;24.30;49.10;;;;;;1624100;71;781;-67
2021/06/06 02:40:31;;;;;;;;;;;24.30;49.10;;;;;;1619209;71;728;-66
2021/06/06 02:42:34;;;;;;;;;;;24.30;49.10;;;;;;1624323;71;1153;-66
2021/06/06 02:44:44;;;;;;;;;;;24.30;49.10;;;;;;1625696;71;761;-66
2021/06/06 02:46:46;;;;;;;;;;;24.30;48.90;;;;;;1621597;71;1870;-66
2021/06/06 02:48:50;;;;;;;;;;;24.30;49.00;;;;;;1620738;71;1916;-66
2021/06/06 02:50:52;;;;;;;;;;;24.30;48.90;;;;;;1623721;71;1004;-66
2021/06/06 02:52:55;;;;;;;;;;;24.30;48.90;;;;;;1623839;71;1160;-66
2021/06/06 02:54:58;;;;;;;;;;;24.30;49.00;;;;;;1569140;73;1055;-68
2021/06/06 02:57:01;;;;;;;;;;;24.30;48.90;;;;;;1621155;71;726;-64
2021/06/06 02:59:13;;;;;;;;;;;24.30;49.00;;;;;;1624803;71;858;-66
2021/06/06 03:01:19;;;;;;;;;;;24.30;49.00;;;;;;1623354;71;753;-73
2021/06/06 03:03:22;;;;;;;;;;;24.30;48.90;;;;;;1619227;71;756;-66
2021/06/06 03:05:25;;;;;;;;;;;24.30;48.90;;;;;;1622456;71;1762;-68
2021/06/06 03:07:34;;;;;;;;;;;24.30;48.90;;;;;;1623474;71;819;-66
2021/06/06 03:09:36;;;;;;;;;;;24.30;48.90;;;;;;1623398;71;1960;-69
2021/06/06 03:11:41;;;;;;;;;;;24.30;49.10;;;;;;1626835;71;1122;-67
2021/06/06 03:13:50;;;;;;;;;;;24.30;48.90;;;;;;1583799;73;734;-67
2021/06/06 03:15:54;;;;;;;;;;;24.30;48.70;;;;;;1581922;73;726;-67
2021/06/06 03:17:56;;;;;;;;;;;24.20;48.70;;;;;;1621543;71;730;-67
2021/06/06 03:19:59;;;;;;;;;;;24.30;48.80;;;;;;1622566;71;785;-66
2021/06/06 03:22:01;;;;;;;;;;;24.30;48.80;;;;;;1625005;71;1106;-66
2021/06/06 03:24:07;;;;;;;;;;;24.30;49.00;;;;;;1624424;71;718;-67
2021/06/06 03:26:10;;;;;;;;;;;24.30;49.10;;;;;;1630266;71;771;-67
2021/06/06 03:28:12;;;;;;;;;;;24.30;49.20;;;;;;1624753;71;701;-66
2021/06/06 03:30:28;;;;;;;;;;;24.30;49.20;;;;;;1624693;71;1929;-68
2021/06/06 03:32:31;;;;;;;;;;;24.30;49.10;;;;;;1577539;73;1175;-68
2021/06/06 03:34:33;;;;;;;;;;;24.20;48.90;;;;;;1581545;73;799;-67
2021/06/06 03:36:36;;;;;;;;;;;24.30;49.20;;;;;;1589952;73;825;-67
2021/06/06 03:38:38;;;;;;;;;;;24.20;48.90;;;;;;1589160;73;892;-68
2021/06/06 03:40:41;;;;;;;;;;;24.30;49.10;;;;;;1590891;73;737;-70
2021/06/06 03:42:43;;;;;;;;;;;24.20;48.80;;;;;;1623684;71;1143;-67
2021/06/06 03:44:45;;;;;;;;;;;24.30;48.90;;;;;;1624457;71;753;-67
2021/06/06 03:46:47;;;;;;;;;;;24.30;49.00;;;;;;1626145;71;815;-67
2021/06/06 03:48:48;;;;;;;;;;;24.20;48.70;;;;;;1623848;73;1937;-70
2021/06/06 03:50:52;;;;;;;;;;;24.20;49.10;;;;;;1626918;71;791;-66
2021/06/06 03:52:54;;;;;;;;;;;24.20;49.10;;;;;;1624437;71;1135;-66
2021/06/06 03:54:56;;;;;;;;;;;24.20;49.00;;;;;;1624247;71;729;-66
2021/06/06 03:56:58;;;;;;;;;;;24.20;49.00;;;;;;1623814;71;802;-65
2021/06/06 03:59:00;;;;;;;;;;;24.20;49.20;;;;;;1581262;73;806;-65
2021/06/06 04:01:02;;;;;;;;;;;24.30;49.30;;;;;;1582578;73;743;-65
2021/06/06 04:03:04;;;;;;;;;;;24.20;49.10;;;;;;1622519;71;1154;-66
2021/06/06 04:05:06;;;;;;;;;;;24.20;49.10;;;;;;1626594;71;804;-67
2021/06/06 04:07:08;;;;;;;;;;;24.20;49.10;;;;;;1626753;71;682;-67
2021/06/06 04:09:10;;;;;;;;;;;24.20;49.20;;;;;;1624776;72;1935;-67
2021/06/06 04:11:12;;;;;;;;;;;24.20;49.10;;;;;;1626047;71;695;-69
2021/06/06 04:13:14;;;;;;;;;;;24.20;49.10;;;;;;1626726;71;1153;-68
2021/06/06 04:15:16;;;;;;;;;;;24.20;49.20;;;;;;1623909;72;814;-69
2021/06/06 04:17:18;;;;;;;;;;;24.20;49.20;;;;;;1626620;72;793;-69
2021/06/06 04:19:20;;;;;;;;;;;24.30;49.40;;;;;;1626349;71;800;-67
2021/06/06 04:21:23;;;;;;;;;;;24.30;49.30;;;;;;1625305;72;1137;-65
2021/06/06 04:23:25;;;;;;;;;;;24.30;49.30;;;;;;1626991;71;788;-68
2021/06/06 04:25:27;;;;;;;;;;;24.20;49.10;;;;;;1622743;72;709;-66
2021/06/06 04:27:29;;;;;;;;;;;24.30;49.30;;;;;;1623459;73;753;-65
2021/06/06 04:29:31;;;;;;;;;;;24.20;49.30;;;;;;1623966;71;1930;-63
2021/06/06 04:31:52;;;;;;;;;;;24.30;49.40;;;;;;1626923;71;1115;-66
2021/06/06 04:33:54;;;;;;;;;;;24.20;49.30;;;;;;1578248;74;653;-71
2021/06/06 04:35:56;;;;;;;;;;;24.20;49.20;;;;;;1572745;74;746;-72
2021/06/06 04:37:57;;;;;;;;;;;24.30;49.30;;;;;;1579259;74;730;-73
2021/06/06 04:39:59;;;;;;;;;;;24.20;49.20;;;;;;1586048;74;775;-71
2021/06/06 04:42:01;;;;;;;;;;;24.20;49.20;;;;;;1580126;74;1215;-72
2021/06/06 04:44:03;;;;;;;;;;;24.20;49.10;;;;;;1596660;73;752;-72
2021/06/06 04:46:05;;;;;;;;;;;24.30;49.30;;;;;;1603358;73;690;-74
2021/06/06 04:48:08;;;;;;;;;;;24.20;49.20;;;;;;1598253;73;758;-72
2021/06/06 04:50:10;;;;;;;;;;;24.20;49.20;;;;;;1596813;73;1927;-70
2021/06/06 04:52:13;;;;;;;;;;;24.30;49.20;;;;;;1593000;73;1131;-72
2021/06/06 04:54:15;;;;;;;;;;;24.20;49.20;;;;;;1597320;73;756;-74
2021/06/06 04:56:17;;;;;;;;;;;24.30;49.30;;;;;;1597013;73;797;-73
2021/06/06 04:58:20;;;;;;;;;;;24.20;49.30;;;;;;1598135;74;790;-72
2021/06/06 05:00:23;;;;;;;;;;;24.30;49.40;;;;;;1596912;73;919;-75
2021/06/06 05:02:25;;;;;;;;;;;24.20;49.30;;;;;;1593609;73;1140;-72
2021/06/06 05:04:27;;;;;;;;;;;24.20;49.20;;;;;;1601057;73;784;-73
2021/06/06 05:06:29;;;;;;;;;;;24.30;49.30;;;;;;1591227;73;721;-72
2021/06/06 05:08:31;;;;;;;;;;;24.30;49.30;;;;;;1601989;73;790;-73
2021/06/06 05:10:34;;;;;;;;;;;24.20;49.20;;;;;;1600834;73;1952;-73
2021/06/06 05:12:35;;;;;;;;;;;24.30;49.30;;;;;;1600270;73;1173;-69
2021/06/06 05:14:37;;;;;;;;;;;24.30;49.30;;;;;;1595841;74;807;-70
2021/06/06 05:16:39;;;;;;;;;;;24.30;49.50;;;;;;1593187;73;810;-70
2021/06/06 05:18:41;;;;;;;;;;;24.20;49.40;;;;;;1599682;73;752;-70
2021/06/06 05:20:44;;;;;;;;;;;24.20;49.40;;;;;;1598067;74;755;-67
2021/06/06 05:22:46;;;;;;;;;;;24.30;49.60;;;;;;1599729;73;1122;-67
2021/06/06 05:24:48;;;;;;;;;;;24.20;49.50;;;;;;1597367;73;787;-67
2021/06/06 05:26:49;;;;;;;;;;;24.20;49.50;;;;;;1593636;74;791;-68
2021/06/06 05:28:51;;;;;;;;;;;24.20;49.40;;;;;;1566421;74;749;-69
2021/06/06 05:30:53;;;;;;;;;;;24.20;49.50;;;;;;1568844;74;1950;-68
2021/06/06 05:32:55;;;;;;;;;;;24.30;49.70;;;;;;1590963;73;1135;-69
2021/06/06 05:34:57;;;;;;;;;;;24.30;49.70;;;;;;1589458;74;758;-70
2021/06/06 05:36:59;;;;;;;;;;;24.30;49.60;;;;;;1591601;73;805;-69
2021/06/06 05:39:01;;;;;;;;;;;24.20;49.40;;;;;;1590036;73;688;-70
2021/06/06 05:41:03;;;;;;;;;;;24.20;49.40;;;;;;1591039;73;725;-69
2021/06/06 05:43:05;;;;;;;;;;;24.30;49.60;;;;;;1594087;73;1169;-71
2021/06/06 05:45:08;;;;;;;;;;;24.30;49.60;;;;;;1587179;74;700;-68
2021/06/06 05:47:09;;;;;;;;;;;24.30;49.40;;;;;;1589440;73;708;-71
2021/06/06 05:49:11;;;;;;;;;;;24.30;49.40;;;;;;1593103;73;668;-71
2021/06/06 05:51:13;;;;;;;;;;;24.30;49.50;;;;;;1591694;73;665;-71
2021/06/06 05:53:15;;;;;;;;;;;24.40;49.30;;;;;;1592694;73;1149;-71
2021/06/06 05:55:17;;;;;;;;;;;24.30;49.60;;;;;;1589850;73;788;-71
2021/06/06 05:57:19;;;;;;;;;;;24.30;49.60;;;;;;1590356;73;776;-71
2021/06/06 05:59:21;;;;;;;;;;;24.30;49.50;;;;;;1592029;73;785;-71
2021/06/06 06:01:23;;;;;;;;;;;24.30;49.40;;;;;;1591961;73;907;-72
2021/06/06 06:03:25;;;;;;;;;;;24.30;49.50;;;;;;1590771;73;1140;-72
2021/06/06 06:05:27;;;;;;;;;;;24.30;49.40;;;;;;1588960;73;758;-72
2021/06/06 06:07:28;;;;;;;;;;;24.40;49.40;;;;;;1588595;73;751;-71
2021/06/06 06:09:30;;;;;;;;;;;24.30;49.40;;;;;;1592017;73;1955;-72
2021/06/06 06:11:32;;;;;;;;;;;24.40;49.40;;;;;;1591377;74;693;-72
2021/06/06 06:13:34;;;;;;;;;;;24.30;49.40;;;;;;1590523;73;1147;-72
2021/06/06 06:15:36;;;;;;;;;;;24.30;49.30;;;;;;1590439;73;709;-72
2021/06/06 06:17:38;;;;;;;;;;;24.30;49.20;;;;;;1593222;73;783;-73
2021/06/06 06:19:40;;;;;;;;;;;24.40;49.30;;;;;;1591581;73;769;-73
2021/06/06 06:21:42;;;;;;;;;;;24.40;49.40;;;;;;1591556;73;1138;-70
2021/06/06 06:23:44;;;;;;;;;;;24.30;49.40;;;;;;1591614;73;749;-71
2021/06/06 06:25:46;;;;;;;;;;;24.30;49.30;;;;;;1588220;73;728;-72
2021/06/06 06:27:47;;;;;;;;;;;24.30;49.40;;;;;;1592683;73;705;-72
2021/06/06 06:29:49;;;;;;;;;;;24.30;49.40;;;;;;1589409;73;1943;-71
2021/06/06 06:31:51;;;;;;;;;;;24.40;49.30;;;;;;1589998;73;1160;-73
2021/06/06 06:33:53;;;;;;;;;;;24.40;49.40;;;;;;1589768;73;800;-69
2021/06/06 06:35:55;;;;;;;;;;;24.30;49.30;;;;;;1591696;73;753;-72
2021/06/06 06:37:57;;;;;;;;;;;24.40;49.40;;;;;;1590916;73;660;-74
2021/06/06 06:39:59;;;;;;;;;;;24.30;49.30;;;;;;1590221;73;789;-71
2021/06/06 06:42:01;;;;;;;;;;;24.40;49.40;;;;;;1592517;73;1179;-72
2021/06/06 06:44:03;;;;;;;;;;;24.30;49.50;;;;;;1592942;73;792;-70
2021/06/06 06:46:05;;;;;;;;;;;24.30;49.50;;;;;;1591597;74;772;-68
2021/06/06 06:48:08;;;;;;;;;;;24.30;49.60;;;;;;1593634;73;836;-71
2021/06/06 06:50:10;;;;;;;;;;;24.40;49.70;;;;;;1589949;74;1937;-72
2021/06/06 06:52:12;;;;;;;;;;;24.30;49.70;;;;;;1590204;73;1117;-71
2021/06/06 06:54:14;;;;;;;;;;;24.30;49.70;;;;;;1595043;73;680;-72
2021/06/06 06:56:16;;;;;;;;;;;24.30;49.60;;;;;;1594833;74;818;-70
2021/06/06 06:58:18;;;;;;;;;;;24.40;49.70;;;;;;1595728;73;828;-71
2021/06/06 07:00:24;;;;;;;;;;;24.40;49.50;;;;;;1595964;73;826;-72
2021/06/06 07:02:27;;;;;;;;;;;24.40;49.40;;;;;;1596284;73;1131;-72
2021/06/06 07:04:28;;;;;;;;;;;24.30;49.60;;;;;;1580604;73;772;-69
2021/06/06 07:06:31;;;;;;;;;;;24.30;49.80;;;;;;1599168;73;753;-67
2021/06/06 07:08:33;;;;;;;;;;;24.30;49.90;;;;;;1592161;74;798;-74
2021/06/06 07:10:36;;;;;;;;;;;24.30;49.90;;;;;;1595344;73;1941;-72
2021/06/06 07:12:38;;;;;;;;;;;24.40;49.90;;;;;;1529992;75;1131;-71
2021/06/06 07:14:40;;;;;;;;;;;24.30;50.10;;;;;;1545095;75;800;-71
2021/06/06 07:16:42;;;;;;;;;;;24.30;50.00;;;;;;1516678;77;764;-70
2021/06/06 07:18:44;;;;;;;;;;;24.30;50.20;;;;;;1553058;75;712;-70
2021/06/06 07:20:45;;;;;;;;;;;24.30;50.30;;;;;;1551027;75;766;-70
2021/06/06 07:22:47;;;;;;;;;;;24.30;50.20;;;;;;1555279;75;1129;-68
2021/06/06 07:24:49;;;;;;;;;;;24.40;50.30;;;;;;1555727;75;879;-67
2021/06/06 07:26:51;;;;;;;;;;;24.40;50.20;;;;;;1556311;75;705;-64
2021/06/06 07:28:53;;;;;;;;;;;24.30;50.00;;;;;;1556470;75;815;-69
2021/06/06 07:30:57;;;;;;;;;;;24.20;49.80;;;;;;1555517;75;1931;-71
2021/06/06 07:32:59;;;;;;;;;;;24.20;49.70;;;;;;1556484;75;1172;-69
2021/06/06 07:35:02;;;;;;;;;;;24.20;49.60;;;;;;1557146;75;907;-70
2021/06/06 07:37:05;;;;;;;;;;;24.30;49.70;;;;;;1553290;75;880;-69
2021/06/06 07:39:07;;;;;;;;;;;24.30;49.40;;;;;;1548554;75;760;-69
2021/06/06 07:41:09;;;;;;;;;;;24.30;49.30;;;;;;1552626;75;745;-70
2021/06/06 07:43:10;;;;;;;;;;;24.20;48.80;;;;;;1562055;75;1160;-69
2021/06/06 07:45:13;;;;;;;;;;;24.20;48.60;;;;;;1558058;75;802;-69
2021/06/06 07:47:15;;;;;;;;;;;24.20;48.60;;;;;;1555958;75;818;-71
2021/06/06 07:49:17;;;;;;;;;;;24.20;48.70;;;;;;1553713;75;786;-68
2021/06/06 07:51:21;;;;;;;;;;;24.20;48.60;;;;;;1552938;75;1947;-69
2021/06/06 07:53:22;;;;;;;;;;;24.10;48.60;;;;;;1550728;75;1670;-69
2021/06/06 07:55:25;;;;;;;;;;;24.10;48.60;;;;;;1555148;75;737;-69
2021/06/06 07:57:26;;;;;;;;;;;24.10;48.60;;;;;;1559087;75;766;-70
2021/06/06 07:59:28;;;;;;;;;;;24.10;48.60;;;;;;1555556;75;771;-70
2021/06/06 08:01:30;;;;;;;;;;;24.10;48.50;;;;;;1555190;75;773;-71
2021/06/06 08:03:32;;;;;;;;;;;24.00;48.70;;;;;;1558791;75;1061;-72
2021/06/06 08:05:34;;;;;;;;;;;24.00;48.30;;;;;;1543942;75;811;-71
2021/06/06 08:07:36;;;;;;;;;;;23.90;48.40;;;;;;1556185;75;839;-69
2021/06/06 08:09:38;;;;;;;;;;;23.80;48.50;;;;;;1556334;75;735;-71
2021/06/06 08:11:40;;;;;;;;;;;23.70;48.70;;;;;;1556340;75;1937;-69
2021/06/06 08:13:42;;;;;;;;;;;23.60;48.60;;;;;;1556450;75;720;-69
2021/06/06 08:15:44;;;;;;;;;;;23.60;48.60;;;;;;1555282;75;730;-70
2021/06/06 08:17:46;;;;;;;;;;;23.60;48.60;;;;;;1553201;75;799;-71
2021/06/06 08:19:48;;;;;;;;;;;23.60;48.50;;;;;;1542848;75;772;-71
2021/06/06 08:21:50;;;;;;;;;;;23.60;48.60;;;;;;1554007;75;1131;-71
2021/06/06 08:23:52;;;;;;;;;;;23.50;48.70;;;;;;1550429;75;718;-69
2021/06/06 08:25:54;;;;;;;;;;;23.50;48.90;;;;;;1537882;75;790;-73
2021/06/06 08:27:56;;;;;;;;;;;23.40;48.70;;;;;;1553772;75;795;-74
2021/06/06 08:29:58;;;;;;;;;;;23.40;48.70;;;;;;1553575;75;728;-68
2021/06/06 08:32:00;;;;;;;;;;;23.30;48.90;;;;;;1552098;75;1930;-68
2021/06/06 08:34:02;;;;;;;;;;;23.10;49.10;;;;;;1553079;75;720;-69
2021/06/06 08:36:05;;;;;;;;;;;23.10;49.40;;;;;;1560113;75;857;-69
2021/06/06 08:38:07;;;;;;;;;;;23.00;49.40;;;;;;1544680;75;749;-66
2021/06/06 08:40:09;;;;;;;;;;;23.10;49.60;;;;;;1534015;75;1087;-69
2021/06/06 08:42:16;;;;;;;;;;;23.10;49.80;;;;;;1556400;75;1194;-69
2021/06/06 08:44:23;;;;;;;;;;;23.10;49.70;;;;;;1556614;75;800;-67
2021/06/06 08:46:25;;;;;;;;;;;23.10;49.70;;;;;;1547672;75;773;-69
2021/06/06 08:48:28;;;;;;;;;;;23.10;50.00;;;;;;1552661;75;823;-67
2021/06/06 08:50:31;;;;;;;;;;;23.10;50.00;;;;;;1555674;75;1927;-67
2021/06/06 08:52:47;;;;;;;;;;;23.10;49.80;;;;;;1554587;75;1167;-70
2021/06/06 08:54:53;;;;;;;;;;;23.10;49.80;;;;;;1552592;75;1048;-69
2021/06/06 08:56:57;;;;;;;;;;;23.20;49.70;;;;;;1556956;75;1156;-69
2021/06/06 08:59:12;;;;;;;;;;;23.20;49.80;;;;;;1556046;75;689;-68
2021/06/06 09:01:16;;;;;;;;;;;23.20;49.60;;;;;;1557792;75;800;-68
2021/06/06 09:03:19;;;;;;;;;;;23.20;49.70;;;;;;1556543;75;1646;-68
2021/06/06 09:05:23;;;;;;;;;;;23.20;49.70;;;;;;1550819;75;1864;-67
2021/06/06 09:07:26;;;;;;;;;;;23.20;49.70;;;;;;1557850;75;1149;-69
2021/06/06 09:09:30;;;;;;;;;;;23.20;49.70;;;;;;1595971;74;2084;-67
2021/06/06 09:11:31;;;;;;;;;;;23.20;49.70;;;;;;1593149;74;1905;-67
2021/06/06 09:13:33;;;;;;;;;;;23.20;49.60;;;;;;1589761;73;1064;-68
2021/06/06 09:15:35;;;;;;;;;;;23.20;49.60;;;;;;1593195;73;849;-68
2021/06/06 09:17:39;;;;;;;;;;;23.30;49.70;;;;;;1597323;74;768;-68
2021/06/06 09:19:42;;;;;;;;;;;23.20;49.70;;;;;;1593276;74;719;-70
2021/06/06 09:21:58;;;;;;;;;;;23.30;49.80;;;;;;1592214;73;1150;-69
2021/06/06 09:24:05;;;;;;;;;;;23.20;49.70;;;;;;1591675;73;728;-67
2021/06/06 09:26:08;;;;;;;;;;;23.20;49.70;;;;;;1592118;73;774;-68
2021/06/06 09:28:22;;;;;;;;;;;23.20;49.70;;;;;;1593284;73;722;-68
2021/06/06 09:30:24;;;;;;;;;;;23.20;49.90;;;;;;1593016;73;794;-67
2021/06/06 09:32:26;;;;;;;;;;;23.20;50.10;;;;;;1589932;73;1952;-70
2021/06/06 09:34:28;;;;;;;;;;;23.10;50.10;;;;;;1596132;73;776;-67
2021/06/06 09:36:31;;;;;;;;;;;23.30;50.00;;;;;;1593215;74;786;-68
2021/06/06 09:38:34;;;;;;;;;;;23.20;49.80;;;;;;1587845;73;827;-67
2021/06/06 09:40:37;;;;;;;;;;;23.20;49.80;;;;;;1587106;74;795;-67
2021/06/06 09:42:43;;;;;;;;;;;23.20;49.60;;;;;;1590609;74;1262;-64
2021/06/06 09:44:45;;;;;;;;;;;23.20;49.90;;;;;;1592808;73;772;-66
2021/06/06 09:46:54;;;;;;;;;;;23.10;50.10;;;;;;1593721;74;760;-66
2021/06/06 09:48:56;;;;;;;;;;;23.20;50.40;;;;;;1594734;74;1060;-65
2021/06/06 09:50:59;;;;;;;;;;;23.20;50.50;;;;;;1560324;74;1925;-65
2021/06/06 09:53:11;;;;;;;;;;;23.20;50.30;;;;;;1591455;73;1763;-65
2021/06/06 09:55:21;;;;;;;;;;;23.20;50.10;;;;;;1596155;74;713;-66
2021/06/06 09:57:27;;;;;;;;;;;23.10;50.40;;;;;;1579733;74;675;-66
2021/06/06 09:59:33;;;;;;;;;;;23.10;50.50;;;;;;1593554;74;798;-65
2021/06/06 10:01:36;;;;;;;;;;;23.10;50.60;;;;;;1595764;74;740;-63
2021/06/06 10:03:39;;;;;;;;;;;23.10;50.70;;;;;;1597893;73;1191;-65
2021/06/06 10:05:42;;;;;;;;;;;23.00;50.50;;;;;;1598822;74;1556;-64
2021/06/06 10:07:45;;;;;;;;;;;22.90;50.90;;;;;;1584307;74;771;-66
2021/06/06 10:09:51;;;;;;;;;;;23.00;51.00;;;;;;1592711;74;1870;-65
2021/06/06 10:12:06;;;;;;;;;;;22.90;51.00;;;;;;1592702;73;1945;-66
2021/06/06 10:14:08;;;;;;;;;;;22.90;51.00;;;;;;1590018;73;789;-64
2021/06/06 10:16:14;;;;;;;;;;;22.90;51.10;;;;;;1591984;74;785;-67
2021/06/06 10:18:21;;;;;;;;;;;22.90;51.30;;;;;;1590964;74;769;-63
2021/06/06 10:20:24;;;;;;;;;;;22.90;51.20;;;;;;1585274;74;789;-64
2021/06/06 10:22:27;;;;;;;;;;;22.90;51.30;;;;;;1581921;74;1114;-67
2021/06/06 10:24:33;;;;;;;;;;;22.80;51.20;;;;;;1597985;73;748;-66
2021/06/06 10:26:37;;;;;;;;;;;22.80;51.30;;;;;;1536821;75;1578;-65
2021/06/06 10:28:40;;;;;;;;;;;22.70;51.50;;;;;;1535056;76;1808;-68
2021/06/06 10:31:02;;;;;;;;;;;22.80;51.50;;;;;;1540373;75;799;-70
2021/06/06 10:33:17;;;;;;;;;;;22.80;51.60;;;;;;1561995;74;219520;-57
2021/06/06 10:35:24;;;;;;;;;;;22.90;51.60;;;;;;1527396;76;1042;-55
2021/06/06 10:37:26;;;;;;;;;;;23.00;51.40;;;;;;1500716;77;776;-57
2021/06/06 10:39:29;;;;;;;;;;;23.00;51.10;;;;;;1528334;76;728;-58
2021/06/06 10:41:35;;;;;;;;;;;23.10;50.90;;;;;;1581154;74;1181;-58
2021/06/06 10:43:44;;;;;;;;;;;23.20;50.70;;;;;;1572772;74;658;-58
2021/06/06 10:45:47;;;;;;;;;;;23.30;50.50;;;;;;1580178;74;2043;-58
2021/06/06 10:47:59;;;;;;;;;;;23.30;50.40;;;;;;1581177;74;741;-58
2021/06/06 10:50:08;;;;;;;;;;;23.40;50.30;;;;;;1540981;75;712;-58
2021/06/06 10:52:23;;;;;;;;;;;23.40;50.20;;;;;;1543488;75;1965;-58
2021/06/06 10:54:27;;;;;;;;;;;23.40;50.10;;;;;;1533894;75;753;-57
2021/06/06 10:56:48;;;;;;;;;;;23.40;49.70;;;;;;1542662;75;1797;-58
2021/06/06 10:58:52;;;;;;;;;;;23.40;49.70;;;;;;1529819;75;822;-56
2021/06/06 11:00:55;;;;;;;;;;;23.40;49.70;;;;;;1554191;75;1117;-58
2021/06/06 11:02:59;;;;;;;;;;;23.50;49.90;;;;;;1598073;73;1795;-58
2021/06/06 11:05:02;;;;;;;;;;;23.50;49.80;;;;;;1582486;73;770;-58
2021/06/06 11:07:05;;;;;;;;;;;23.50;49.70;;;;;;1584965;73;778;-58
2021/06/06 11:09:07;;;;;;;;;;;23.50;49.70;;;;;;1608144;73;684;-57
2021/06/06 11:11:26;;;;;;;;;;;23.60;49.60;;;;;;1596916;73;1956;-58
2021/06/06 11:13:38;;;;;;;;;;;23.60;49.60;;;;;;1609911;72;762;-56
2021/06/06 11:15:44;;;;;;;;;;;23.50;49.50;;;;;;1594710;73;781;-56
2021/06/06 11:17:46;;;;;;;;;;;23.60;49.50;;;;;;1613063;73;1837;-56
2021/06/06 11:19:48;;;;;;;;;;;23.60;49.50;;;;;;1600232;72;738;-56
2021/06/06 11:21:51;;;;;;;;;;;23.60;49.50;;;;;;1601303;73;1095;-58
2021/06/06 11:23:54;;;;;;;;;;;23.60;49.40;;;;;;1610088;73;790;-58
2021/06/06 11:25:56;;;;;;;;;;;23.60;49.40;;;;;;1607834;73;705;-55
2021/06/06 11:27:59;;;;;;;;;;;23.60;49.40;;;;;;1614496;73;723;-56
2021/06/06 11:30:03;;;;;;;;;;;23.60;49.30;;;;;;1604130;72;861;-57
2021/06/06 11:32:18;;;;;;;;;;;23.60;49.20;;;;;;1609960;72;2116;-57
2021/06/06 11:34:21;;;;;;;;;;;23.60;49.20;;;;;;1525789;76;1572;-58
2021/06/06 11:36:36;;;;;;;;;;;23.60;49.10;;;;;;1553256;74;781;-58
2021/06/06 11:38:42;;;;;;;;;;;23.60;49.10;;;;;;1538686;76;720;-58
2021/06/06 11:40:46;;;;;;;;;;;23.60;49.20;;;;;;1540840;75;1161;-58
2021/06/06 11:42:48;;;;;;;;;;;23.60;48.90;;;;;;1562909;74;1462;-57
2021/06/06 11:45:10;;;;;;;;;;;23.60;49.10;;;;;;1567238;74;763;-56
2021/06/06 11:47:15;;;;;;;;;;;23.60;49.10;;;;;;1562726;74;1179;-57
2021/06/06 11:49:35;;;;;;;;;;;23.70;49.10;;;;;;1559543;74;950;-58
2021/06/06 11:51:38;;;;;;;;;;;23.60;48.90;;;;;;1562448;74;1931;-58
2021/06/06 11:53:41;;;;;;;;;;;23.60;48.90;;;;;;1551284;74;749;-57
2021/06/06 11:55:44;;;;;;;;;;;23.70;48.90;;;;;;1561645;74;736;-56
2021/06/06 11:57:50;;;;;;;;;;;23.60;49.10;;;;;;1560799;74;644;-56
2021/06/06 11:59:58;;;;;;;;;;;23.60;49.10;;;;;;1557615;74;1863;-58
2021/06/06 12:02:01;;;;;;;;;;;23.60;49.30;;;;;;1558504;74;1100;-59
2021/06/06 12:04:07;;;;;;;;;;;23.60;49.50;;;;;;1534951;75;784;-57
2021/06/06 12:06:10;;;;;;;;;;;23.50;49.80;;;;;;1550546;76;799;-57
2021/06/06 12:08:13;;;;;;;;;;;23.50;50.10;;;;;;1538978;76;726;-57
2021/06/06 12:10:22;;;;;;;;;;;23.40;50.40;;;;;;1597646;73;1142;-58
2021/06/06 12:12:34;;;;;;;;;;;23.30;50.20;;;;;;1579046;73;1923;-57
2021/06/06 12:14:35;;;;;;;;;;;23.30;50.50;;;;;;1597363;73;808;-56
2021/06/06 12:16:39;;;;;;;;;;;23.40;50.50;;;;;;1594115;73;750;-57
2021/06/06 12:18:43;;;;;;;;;;;23.50;50.60;;;;;;1589183;73;1111;-58